Flight Track Log - Related Links

Times and Time Zones

All times are in EST time to prevent confusion due to time zone crossing. See the FLG4262 flight status page for this flight to view local times or setup timezone preferences in your user account.

Time Position Orientation Groundspeed Altitude Reporting Facility
EST Latitude Longitude Course Direction KTS MPH feet Rate Location/Type
Fri 05:34:56 PM 42.1292 -76.0417 269° West 138 159 6,900  Level New York Center
Fri 05:35:56 PM 42.1564 -76.1278 293° West 184 212 8,000 1,700 Climbing New York Center
Fri 05:36:56 PM 42.1856 -76.2197 293° West 222 255 10,300 1,750 Climbing New York Center
Fri 05:37:56 PM 42.2183 -76.3233 293° West 257 296 11,500 1,327 Climbing New York Center
Fri 05:38:40 PM 42.2436 -76.3919 296° West 321 369 12,600 1,925 Climbing Cleveland Center
Fri 05:39:42 PM 42.2794 -76.5069 293° West 330 380 14,900 1,984 Climbing Cleveland Center
Fri 05:40:44 PM 42.3158 -76.6231 293° West 333 383 16,700 1,645 Climbing Cleveland Center
Fri 05:41:46 PM 42.3608 -76.7669 293° West 349 402 18,300 1,355 Climbing Cleveland Center
Fri 05:42:48 PM 42.3992 -76.8875 293° West 349 402 19,500 1,161 Climbing Cleveland Center
Fri 05:43:50 PM 42.4383 -77.0131 293° West 360 414 20,700 1,200 Climbing Cleveland Center
Fri 05:44:53 PM 42.4767 -77.1372 293° West 360 414 22,000 1,200 Climbing Cleveland Center
Fri 05:45:55 PM 42.5144 -77.2592 293° West 355 409 23,200 645 Climbing Cleveland Center
Fri 05:47:59 PM 42.5975 -77.5331 292° West 368 423 24,000 258 Climbing Cleveland Center
Fri 05:49:01 PM 42.6372 -77.6656 292° West 374 430 24,000  Level Cleveland Center
Fri 05:50:03 PM 42.6794 -77.8003 293° West 386 444 24,000  Level Cleveland Center
Fri 05:51:05 PM 42.7253 -77.9542 292° West 388 447 24,000  Level Cleveland Center
Fri 05:52:07 PM 42.7650 -78.0881 292° West 383 441 24,000  Level Cleveland Center
Fri 05:53:09 PM 42.8044 -78.2208 292° West 379 436 24,000  Level Cleveland Center
Fri 05:54:11 PM 42.8442 -78.3569 292° West 387 445 24,000  Level Cleveland Center
Fri 05:55:13 PM 42.8836 -78.4919 292° West 384 442 24,000  Level Cleveland Center
Fri 05:56:15 PM 42.9244 -78.6278 292° West 386 444 24,000  Level Cleveland Center
Fri 05:57:17 PM 42.9100 -78.7911 263° West 368 423 24,000  Level Cleveland Center
Fri 05:58:20 PM 42.8883 -78.9275 258° West 370 426 24,000  Level Cleveland Center
Fri 05:59:23 PM 42.8683 -79.0644 259° West 370 426 24,000  Level Cleveland Center
Fri 06:00:25 PM 42.8481 -79.2003 259° West 368 423 24,000  Level Cleveland Center
Fri 06:01:27 PM 42.8242 -79.3639 259° West 367 422 24,000  Level Cleveland Center
Fri 06:02:29 PM 42.8031 -79.5006 258° West 369 425 24,000  Level Cleveland Center
Fri 06:03:31 PM 42.7828 -79.6361 259° West 368 423 24,000  Level Cleveland Center
Fri 06:04:33 PM 42.7614 -79.7722 258° West 368 423 24,000  Level Cleveland Center
Fri 06:05:35 PM 42.7478 -79.9108 262° West 372 428 24,000  Level Cleveland Center
Fri 06:06:38 PM 42.7414 -80.0639 267° West 375 432 24,000  Level Cleveland Center
Fri 06:07:40 PM 42.7361 -80.2069 267° West 377 434 24,000  Level Cleveland Center
Fri 06:08:42 PM 42.7303 -80.3494 267° West 375 432 24,000  Level Cleveland Center
Fri 06:09:44 PM 42.7233 -80.4922 266° West 376 433 24,000  Level Cleveland Center
Fri 06:10:46 PM 42.7161 -80.6525 267° West 365 420 24,000  Level Cleveland Center
Fri 06:11:48 PM 42.7114 -80.7900 267° West 362 417 24,000  Level Cleveland Center
Fri 06:12:50 PM 42.7031 -80.9231 265° West 353 406 24,000 -532 Level Cleveland Center
Fri 06:13:52 PM 42.6869 -81.0544 261° West 352 405 22,900 -1,113 Descending Cleveland Center
Fri 06:14:54 PM 42.6708 -81.1897 261° West 358 412 21,700 -1,161 Descending Cleveland Center
Fri 06:15:56 PM 42.6561 -81.3256 262° West 361 415 20,500 -823 Descending Cleveland Center
Fri 06:16:58 PM 42.6397 -81.4597 261° West 358 412 20,000 -242 Descending Cleveland Center
Fri 06:18:00 PM 42.6217 -81.6133 261° West 353 406 20,000  Level Cleveland Center
Fri 06:19:02 PM 42.6056 -81.7458 261° West 353 406 20,000  Level Cleveland Center
Fri 06:20:04 PM 42.5911 -81.8697 261° West 355 409 20,000 -144 Level Cleveland Center
Fri 06:21:07 PM 42.5744 -82.0022 260° West 355 409 19,700 -1,152 Descending Cleveland Center
Fri 06:22:09 PM 42.5561 -82.1603 261° West 356 410 17,600 -1,929 Descending Cleveland Center
Fri 06:22:59 PM 42.5442 -82.2653 261° West 339 390 16,100 -1,742 Descending Cleveland Center
Fri 06:23:11 PM 42.5403 -82.2856 255° West 344 396 15,800 -1,839 Descending Cleveland Center
Fri 06:24:01 PM 42.5269 -82.3933 261° West 330 380 14,200 -1,742 Descending Cleveland Center
Fri 06:24:13 PM 42.5239 -82.4078 254° West 335 386 14,000 -1,818 Descending Cleveland Center
Fri 06:25:07 PM 42.5114 -82.5244 262° West 322 371 12,200 -1,742 Descending Cleveland Center
Fri 06:25:15 PM 42.5092 -82.5275 225° Southwest 326 375 12,200 -643 Level Cleveland Center
Fri 06:26:03 PM 42.4653 -82.6144 236° Southwest 307 353 11,600 -774 Descending Cleveland Center
Fri 06:26:17 PM 42.4586 -82.6214 218° Southwest 312 359 11,400 -1,279 Descending Cleveland Center
Fri 06:27:04 PM 42.4219 -82.6967 237° Southwest 259 298 10,300 -1,258 Descending Cleveland Center
Fri 06:27:19 PM 42.4147 -82.7033 214° Southwest 283 326 10,100 -1,279 Descending Cleveland Center
Fri 06:28:05 PM 42.3853 -82.7681 238° Southwest 204 235 9,000 -1,452 Descending Cleveland Center
Fri 06:28:21 PM 42.3864 -82.7881 274° West 233 268 8,600 -896 Descending Cleveland Center
Fri 06:29:12 PM 42.4128 -82.8481 301° West 217 250 8,000 -581 Descending Cleveland Center
Fri 06:29:23 PM 42.4169 -82.8564 304° West 216 249 8,000  Level Cleveland Center
Fri 06:30:13 PM 42.4431 -82.9228 298° West 215 247 8,000  Level Cleveland Center
Fri 06:30:26 PM 42.4450 -82.9281 297° West 216 249 8,000  Level Cleveland Center
Fri 06:31:14 PM 42.4714 -82.9917 299° West 213 245 8,000  Level Cleveland Center
Fri 06:31:28 PM 42.4722 -82.9983 280° West 213 245 8,000 -429 Level Cleveland Center
Fri 06:32:10 PM 42.4956 -83.0600 297° West 216 249 7,600 -677 Descending Cleveland Center
Fri 06:32:30 PM 42.4994 -83.0694 299° West 213 245 7,300 -537 Descending Cleveland Center
Fri 06:33:17 PM 42.4939 -83.1389 264° West 202 232 7,000 -484 Descending Cleveland Center
Fri 06:33:32 PM 42.4869 -83.1531 236° Southwest 213 245 6,800 -1,377 Descending Cleveland Center
Fri 06:34:18 PM 42.4506 -83.1867 214° Southwest 203 234 5,600 -1,452 Descending Cleveland Center
Fri 06:34:34 PM 42.4394 -83.1944 207° Southwest 212 244 5,300 -982 Descending Cleveland Center
Fri 06:35:13 PM 42.4083 -83.2175 209° Southwest 182 209 4,700 -968 Descending Cleveland Center
Fri 06:35:36 PM 42.3944 -83.2269 207° Southwest 191 220 4,300 -1,082 Descending Cleveland Center
Fri 06:36:14 PM 42.3658 -83.2514 212° Southwest 177 204 3,600 -871 Descending Cleveland Center
Fri 06:36:38 PM 42.3522 -83.2586 201° Southwest 179 206 3,400 -885 Descending Cleveland Center
Fri 06:37:15 PM 42.3236 -83.2822 211° Southwest 161 185 2,700 -871 Descending Cleveland Center
Fri 06:37:40 PM 42.3131 -83.2875 200° South 168 193 2,500 -689 Descending Cleveland Center
Fri 06:38:16 PM 42.2881 -83.3081 211° Southwest 135 155 2,000 -677 Descending Cleveland Center
Fri 06:38:42 PM 42.2786 -83.3142 206° Southwest 154 177 1,800 -689 Descending Cleveland Center
Fri 06:39:17 PM 42.2572 -83.3292 207° Southwest 125 144 1,300 -677 Descending Cleveland Center
Fri 06:39:44 PM 42.2492 -83.3350 208° Southwest 133 153 1,100 -444 Descending Cleveland Center
Fri 06:41:00 PM 42.2124 -83.3534 246° West  Level Estimated
Fri 06:48:00 PM 42.2124 -83.3534 246° West  Level Estimated
Fri 06:49:00 PM 42.2124 -83.3534 246° West  Level Estimated

Login

Don't have an account? Register now (free) for customized features, flight alerts, and more!